KESC/ESC METAR and TAF weather

Enter ICAO airport designator
Station Type Date Time Source
KESC METAR 2022/05/26 03:56 UTC NOAA

KESC 260356Z AUTO 07007KT 3SM RA BR OVC004 11/11 A2982 RMK AO2 SLP102 P0015 T01060106


Station Type Date Time Source
KESC Decoded METAR 2022/05/26 03:56 UTC NOAA

Escanaba, MI, United States (KESC) 45-45N 087-02W 187M
May 25, 2022 - 11:56 PM EDT / 2022.05.26 0356 UTC
Wind: from the ENE (070 degrees) at 8 MPH (7 KT):0
Visibility: 3 mile(s):0
Sky conditions: overcast
Weather: rain; mist
Precipitation last hour: 0.15 inches
Temperature: 51.1 F (10.6 C)
Dew Point: 51.1 F (10.6 C)
Relative Humidity: 100%
Pressure (altimeter): 29.82 in. Hg (1009 hPa)
ob: KESC 260356Z AUTO 07007KT 3SM RA BR OVC004 11/11 A2982 RMK AO2 SLP102 P0015 T01060106
cycle: 4

Station Type Date Time Source
KESC TAF UTC NOAA

Error!

Example: see airport list